aviador You're here:

KFDW Decoded Metar

FAIRFIELD COUNTY AIRPORT in SC, USA
Report Time2017-09-20 19:55:00
UTC Time2017-09-20 20:08:27
Flight Rules vfr VFR
Wind230° at 05 kt
W.Decomp.*RWY 22: 4.8 kt HW 1.5 kt RCW
W.Rank230° ranks 8
Current wind is below 230° avg. (5.5)
Visibility9999 m
Phenomena:N/A
Clouds:N/A
Expected CloudBase > 2,800 ft AGL from Temp-Dew spread
CeilingNone
Temp28°C (ISA +14)
Dew Point21°C (66% RH)
Heat Index30.2°C
QNH1016 hPa
Density Alt2,434 ft
Elevation577 ft
Report Wrong Elevation
Raw Report
KFDW 201955Z AUTO 23005KT 10SM CLR 28/21 A2999 RMK AO1 LTG DSNT
SW=

Extra information for KFDW:More info

Metar Taf Metar & Taf Last 4 Metars F.Rules Stats Wind Profile Meteogram Temp Stats Airport Information Weather charts Add Link Nearby VenuesMetar ALERT Operation Metar Decoded Social comments

AIRNAV info for KFDW